sensor_id;sensor_type;location;lat;lon;timestamp;P1;durP1;ratioP1;P2;durP2;ratioP2
67997;SDS011;54773;53.388;-1.504;2023-05-27T00:02:30;9.43;;;3.33;;
67997;SDS011;54773;53.388;-1.504;2023-05-27T00:05:14;9.75;;;3.83;;
67997;SDS011;54773;53.388;-1.504;2023-05-27T00:08:00;12.52;;;3.95;;
67997;SDS011;54773;53.388;-1.504;2023-05-27T00:10:44;12.82;;;3.88;;
67997;SDS011;54773;53.388;-1.504;2023-05-27T00:13:29;13.55;;;4.00;;
67997;SDS011;54773;53.388;-1.504;2023-05-27T00:16:12;14.60;;;4.23;;
67997;SDS011;54773;53.388;-1.504;2023-05-27T00:18:57;12.60;;;3.65;;
67997;SDS011;54773;53.388;-1.504;2023-05-27T00:21:41;11.90;;;4.22;;
67997;SDS011;54773;53.388;-1.504;2023-05-27T00:24:26;10.85;;;3.67;;
67997;SDS011;54773;53.388;-1.504;2023-05-27T00:27:10;13.75;;;3.83;;
67997;SDS011;54773;53.388;-1.504;2023-05-27T00:29:57;11.05;;;4.40;;
67997;SDS011;54773;53.388;-1.504;2023-05-27T00:32:41;15.68;;;3.72;;
67997;SDS011;54773;53.388;-1.504;2023-05-27T00:35:25;9.45;;;3.50;;
67997;SDS011;54773;53.388;-1.504;2023-05-27T00:38:09;8.40;;;3.72;;
67997;SDS011;54773;53.388;-1.504;2023-05-27T00:40:54;14.70;;;3.38;;
67997;SDS011;54773;53.388;-1.504;2023-05-27T00:43:38;9.30;;;3.20;;
67997;SDS011;54773;53.388;-1.504;2023-05-27T00:46:23;9.45;;;3.63;;
67997;SDS011;54773;53.388;-1.504;2023-05-27T00:49:07;11.75;;;3.67;;
67997;SDS011;54773;53.388;-1.504;2023-05-27T00:51:51;8.68;;;3.00;;
67997;SDS011;54773;53.388;-1.504;2023-05-27T00:54:35;13.48;;;3.45;;
67997;SDS011;54773;53.388;-1.504;2023-05-27T00:57:19;14.77;;;3.70;;
67997;SDS011;54773;53.388;-1.504;2023-05-27T01:00:03;10.57;;;3.55;;
67997;SDS011;54773;53.388;-1.504;2023-05-27T01:02:51;12.30;;;3.45;;
67997;SDS011;54773;53.388;-1.504;2023-05-27T01:05:35;10.13;;;3.70;;
67997;SDS011;54773;53.388;-1.504;2023-05-27T01:08:29;14.13;;;4.13;;
67997;SDS011;54773;53.388;-1.504;2023-05-27T01:11:15;12.80;;;3.53;;
67997;SDS011;54773;53.388;-1.504;2023-05-27T01:14:04;13.35;;;3.33;;
67997;SDS011;54773;53.388;-1.504;2023-05-27T01:16:53;13.57;;;3.63;;
67997;SDS011;54773;53.388;-1.504;2023-05-27T01:19:41;12.73;;;3.50;;
67997;SDS011;54773;53.388;-1.504;2023-05-27T01:22:27;9.07;;;2.90;;
67997;SDS011;54773;53.388;-1.504;2023-05-27T01:25:13;11.63;;;4.38;;
67997;SDS011;54773;53.388;-1.504;2023-05-27T01:27:57;13.23;;;3.50;;
67997;SDS011;54773;53.388;-1.504;2023-05-27T01:30:41;9.93;;;3.17;;
67997;SDS011;54773;53.388;-1.504;2023-05-27T01:33:25;9.98;;;3.05;;
67997;SDS011;54773;53.388;-1.504;2023-05-27T01:36:12;11.38;;;2.90;;
67997;SDS011;54773;53.388;-1.504;2023-05-27T01:38:58;9.50;;;3.47;;
67997;SDS011;54773;53.388;-1.504;2023-05-27T01:41:43;11.30;;;3.28;;
67997;SDS011;54773;53.388;-1.504;2023-05-27T01:44:29;11.00;;;3.28;;
67997;SDS011;54773;53.388;-1.504;2023-05-27T01:47:14;13.30;;;3.40;;
67997;SDS011;54773;53.388;-1.504;2023-05-27T01:49:57;10.67;;;3.53;;
67997;SDS011;54773;53.388;-1.504;2023-05-27T01:52:41;10.65;;;3.08;;
67997;SDS011;54773;53.388;-1.504;2023-05-27T01:55:26;9.50;;;3.03;;
67997;SDS011;54773;53.388;-1.504;2023-05-27T01:58:10;12.38;;;3.42;;
67997;SDS011;54773;53.388;-1.504;2023-05-27T02:00:54;9.40;;;3.27;;
67997;SDS011;54773;53.388;-1.504;2023-05-27T02:03:38;12.97;;;3.57;;
67997;SDS011;54773;53.388;-1.504;2023-05-27T02:06:22;11.07;;;3.67;;
67997;SDS011;54773;53.388;-1.504;2023-05-27T02:09:06;10.85;;;3.70;;
67997;SDS011;54773;53.388;-1.504;2023-05-27T02:11:51;12.75;;;4.15;;
67997;SDS011;54773;53.388;-1.504;2023-05-27T02:14:37;8.98;;;3.55;;
67997;SDS011;54773;53.388;-1.504;2023-05-27T02:17:22;7.85;;;3.25;;
67997;SDS011;54773;53.388;-1.504;2023-05-27T02:20:07;10.38;;;3.83;;
67997;SDS011;54773;53.388;-1.504;2023-05-27T02:22:54;11.60;;;3.70;;
67997;SDS011;54773;53.388;-1.504;2023-05-27T02:25:39;11.73;;;3.83;;
67997;SDS011;54773;53.388;-1.504;2023-05-27T02:28:23;11.40;;;3.53;;
67997;SDS011;54773;53.388;-1.504;2023-05-27T02:31:07;6.63;;;3.10;;
67997;SDS011;54773;53.388;-1.504;2023-05-27T02:33:52;10.50;;;3.47;;
67997;SDS011;54773;53.388;-1.504;2023-05-27T02:36:36;12.18;;;3.75;;
67997;SDS011;54773;53.388;-1.504;2023-05-27T02:39:20;9.07;;;2.90;;
67997;SDS011;54773;53.388;-1.504;2023-05-27T02:42:04;13.70;;;3.92;;
67997;SDS011;54773;53.388;-1.504;2023-05-27T02:44:49;8.77;;;3.28;;
67997;SDS011;54773;53.388;-1.504;2023-05-27T02:47:33;10.35;;;3.22;;
67997;SDS011;54773;53.388;-1.504;2023-05-27T02:50:16;8.68;;;3.05;;
67997;SDS011;54773;53.388;-1.504;2023-05-27T02:53:00;12.20;;;4.23;;
67997;SDS011;54773;53.388;-1.504;2023-05-27T02:55:44;11.53;;;3.50;;
67997;SDS011;54773;53.388;-1.504;2023-05-27T02:58:28;12.73;;;3.45;;
67997;SDS011;54773;53.388;-1.504;2023-05-27T03:01:12;13.13;;;3.85;;
67997;SDS011;54773;53.388;-1.504;2023-05-27T03:03:56;12.52;;;3.45;;
67997;SDS011;54773;53.388;-1.504;2023-05-27T03:06:40;10.07;;;3.60;;
67997;SDS011;54773;53.388;-1.504;2023-05-27T03:09:24;9.43;;;3.80;;
67997;SDS011;54773;53.388;-1.504;2023-05-27T03:12:08;11.13;;;3.63;;
67997;SDS011;54773;53.388;-1.504;2023-05-27T03:14:52;13.57;;;3.42;;
67997;SDS011;54773;53.388;-1.504;2023-05-27T03:17:36;9.82;;;3.63;;
67997;SDS011;54773;53.388;-1.504;2023-05-27T03:20:21;11.55;;;3.40;;
67997;SDS011;54773;53.388;-1.504;2023-05-27T03:23:05;12.77;;;3.67;;
67997;SDS011;54773;53.388;-1.504;2023-05-27T03:25:49;11.50;;;3.60;;
67997;SDS011;54773;53.388;-1.504;2023-05-27T03:28:34;12.00;;;3.70;;
67997;SDS011;54773;53.388;-1.504;2023-05-27T03:31:18;10.57;;;2.97;;
67997;SDS011;54773;53.388;-1.504;2023-05-27T03:34:02;10.15;;;3.60;;
67997;SDS011;54773;53.388;-1.504;2023-05-27T03:36:46;10.50;;;3.25;;
67997;SDS011;54773;53.388;-1.504;2023-05-27T03:39:30;8.25;;;3.15;;
67997;SDS011;54773;53.388;-1.504;2023-05-27T03:42:15;11.35;;;3.70;;
67997;SDS011;54773;53.388;-1.504;2023-05-27T03:44:58;10.93;;;3.60;;
67997;SDS011;54773;53.388;-1.504;2023-05-27T03:47:42;13.80;;;3.72;;
67997;SDS011;54773;53.388;-1.504;2023-05-27T03:50:26;12.87;;;3.47;;
67997;SDS011;54773;53.388;-1.504;2023-05-27T03:53:10;11.43;;;3.70;;
67997;SDS011;54773;53.388;-1.504;2023-05-27T03:55:55;13.40;;;3.50;;
67997;SDS011;54773;53.388;-1.504;2023-05-27T03:58:39;8.18;;;2.72;;
67997;SDS011;54773;53.388;-1.504;2023-05-27T04:01:23;10.35;;;3.67;;
67997;SDS011;54773;53.388;-1.504;2023-05-27T04:04:07;13.98;;;3.25;;
67997;SDS011;54773;53.388;-1.504;2023-05-27T04:06:51;9.13;;;2.97;;
67997;SDS011;54773;53.388;-1.504;2023-05-27T04:09:37;10.57;;;3.55;;
67997;SDS011;54773;53.388;-1.504;2023-05-27T04:12:21;9.43;;;2.90;;
67997;SDS011;54773;53.388;-1.504;2023-05-27T04:15:05;11.60;;;3.20;;
67997;SDS011;54773;53.388;-1.504;2023-05-27T04:17:51;10.73;;;3.25;;
67997;SDS011;54773;53.388;-1.504;2023-05-27T04:20:38;9.35;;;2.92;;
67997;SDS011;54773;53.388;-1.504;2023-05-27T04:23:24;12.68;;;3.60;;
67997;SDS011;54773;53.388;-1.504;2023-05-27T04:26:07;10.67;;;3.13;;
67997;SDS011;54773;53.388;-1.504;2023-05-27T04:28:51;11.13;;;3.35;;
67997;SDS011;54773;53.388;-1.504;2023-05-27T04:31:35;10.00;;;3.00;;
67997;SDS011;54773;53.388;-1.504;2023-05-27T04:34:20;7.28;;;2.92;;
67997;SDS011;54773;53.388;-1.504;2023-05-27T04:37:04;8.85;;;3.00;;
67997;SDS011;54773;53.388;-1.504;2023-05-27T04:39:48;8.38;;;2.90;;
67997;SDS011;54773;53.388;-1.504;2023-05-27T04:42:32;12.88;;;3.30;;
67997;SDS011;54773;53.388;-1.504;2023-05-27T04:45:16;7.55;;;2.92;;
67997;SDS011;54773;53.388;-1.504;2023-05-27T04:48:01;8.30;;;2.95;;
67997;SDS011;54773;53.388;-1.504;2023-05-27T04:50:45;10.65;;;3.15;;
67997;SDS011;54773;53.388;-1.504;2023-05-27T04:53:29;9.00;;;2.78;;
67997;SDS011;54773;53.388;-1.504;2023-05-27T04:56:13;10.90;;;3.13;;
67997;SDS011;54773;53.388;-1.504;2023-05-27T04:59:00;10.10;;;3.15;;
67997;SDS011;54773;53.388;-1.504;2023-05-27T05:01:44;11.07;;;3.07;;
67997;SDS011;54773;53.388;-1.504;2023-05-27T05:04:53;8.88;;;3.40;;
67997;SDS011;54773;53.388;-1.504;2023-05-27T05:07:37;13.77;;;3.25;;
67997;SDS011;54773;53.388;-1.504;2023-05-27T05:10:24;8.43;;;3.08;;
67997;SDS011;54773;53.388;-1.504;2023-05-27T05:13:09;8.73;;;3.20;;
67997;SDS011;54773;53.388;-1.504;2023-05-27T05:15:53;9.37;;;3.67;;
67997;SDS011;54773;53.388;-1.504;2023-05-27T05:18:36;11.40;;;3.60;;
67997;SDS011;54773;53.388;-1.504;2023-05-27T05:21:20;11.00;;;3.60;;
67997;SDS011;54773;53.388;-1.504;2023-05-27T05:24:04;8.13;;;3.20;;
67997;SDS011;54773;53.388;-1.504;2023-05-27T05:26:49;11.57;;;3.15;;
67997;SDS011;54773;53.388;-1.504;2023-05-27T05:29:33;11.63;;;3.13;;
67997;SDS011;54773;53.388;-1.504;2023-05-27T05:32:17;10.38;;;3.10;;
67997;SDS011;54773;53.388;-1.504;2023-05-27T05:35:01;10.23;;;2.90;;
67997;SDS011;54773;53.388;-1.504;2023-05-27T05:37:45;12.05;;;3.00;;
67997;SDS011;54773;53.388;-1.504;2023-05-27T05:40:29;8.27;;;2.78;;
67997;SDS011;54773;53.388;-1.504;2023-05-27T05:43:14;9.37;;;2.97;;
67997;SDS011;54773;53.388;-1.504;2023-05-27T05:45:58;10.25;;;2.75;;
67997;SDS011;54773;53.388;-1.504;2023-05-27T05:48:43;13.32;;;3.50;;
67997;SDS011;54773;53.388;-1.504;2023-05-27T05:51:28;12.02;;;3.05;;
67997;SDS011;54773;53.388;-1.504;2023-05-27T05:54:12;9.30;;;3.33;;
67997;SDS011;54773;53.388;-1.504;2023-05-27T05:56:56;11.93;;;2.87;;
67997;SDS011;54773;53.388;-1.504;2023-05-27T05:59:40;11.93;;;3.37;;
67997;SDS011;54773;53.388;-1.504;2023-05-27T06:02:24;8.60;;;2.83;;
67997;SDS011;54773;53.388;-1.504;2023-05-27T06:05:09;12.35;;;3.10;;
67997;SDS011;54773;53.388;-1.504;2023-05-27T06:07:53;8.15;;;2.85;;
67997;SDS011;54773;53.388;-1.504;2023-05-27T06:10:37;7.82;;;2.58;;
67997;SDS011;54773;53.388;-1.504;2023-05-27T06:13:21;13.27;;;3.22;;
67997;SDS011;54773;53.388;-1.504;2023-05-27T06:16:05;17.58;;;3.15;;
67997;SDS011;54773;53.388;-1.504;2023-05-27T06:18:50;10.68;;;3.00;;
67997;SDS011;54773;53.388;-1.504;2023-05-27T06:21:35;8.45;;;2.60;;
67997;SDS011;54773;53.388;-1.504;2023-05-27T06:24:20;12.32;;;2.88;;
67997;SDS011;54773;53.388;-1.504;2023-05-27T06:27:05;12.18;;;2.80;;
67997;SDS011;54773;53.388;-1.504;2023-05-27T06:29:49;9.77;;;2.50;;
67997;SDS011;54773;53.388;-1.504;2023-05-27T06:32:34;8.60;;;2.97;;
67997;SDS011;54773;53.388;-1.504;2023-05-27T06:35:18;8.52;;;2.95;;
67997;SDS011;54773;53.388;-1.504;2023-05-27T06:38:02;10.65;;;2.90;;
67997;SDS011;54773;53.388;-1.504;2023-05-27T06:40:46;7.82;;;2.58;;
67997;SDS011;54773;53.388;-1.504;2023-05-27T06:43:31;11.40;;;2.50;;
67997;SDS011;54773;53.388;-1.504;2023-05-27T06:46:15;13.30;;;2.67;;
67997;SDS011;54773;53.388;-1.504;2023-05-27T06:48:59;13.05;;;2.72;;
67997;SDS011;54773;53.388;-1.504;2023-05-27T06:51:43;6.87;;;2.80;;
67997;SDS011;54773;53.388;-1.504;2023-05-27T06:54:27;7.57;;;2.87;;
67997;SDS011;54773;53.388;-1.504;2023-05-27T06:57:10;7.72;;;2.90;;
67997;SDS011;54773;53.388;-1.504;2023-05-27T06:59:55;7.40;;;2.65;;
67997;SDS011;54773;53.388;-1.504;2023-05-27T07:02:39;11.30;;;2.60;;
67997;SDS011;54773;53.388;-1.504;2023-05-27T07:05:27;10.40;;;2.97;;
67997;SDS011;54773;53.388;-1.504;2023-05-27T07:08:12;10.52;;;3.13;;
67997;SDS011;54773;53.388;-1.504;2023-05-27T07:10:56;10.80;;;2.80;;
67997;SDS011;54773;53.388;-1.504;2023-05-27T07:13:44;10.63;;;3.03;;
67997;SDS011;54773;53.388;-1.504;2023-05-27T07:16:28;12.85;;;3.15;;
67997;SDS011;54773;53.388;-1.504;2023-05-27T07:19:13;10.98;;;3.38;;
67997;SDS011;54773;53.388;-1.504;2023-05-27T07:21:57;9.90;;;3.37;;
67997;SDS011;54773;53.388;-1.504;2023-05-27T07:24:41;8.87;;;2.73;;
67997;SDS011;54773;53.388;-1.504;2023-05-27T07:27:24;9.53;;;2.90;;
67997;SDS011;54773;53.388;-1.504;2023-05-27T07:30:08;11.88;;;3.20;;
67997;SDS011;54773;53.388;-1.504;2023-05-27T07:32:53;9.52;;;2.97;;
67997;SDS011;54773;53.388;-1.504;2023-05-27T07:35:41;9.20;;;2.55;;
67997;SDS011;54773;53.388;-1.504;2023-05-27T07:38:28;8.80;;;2.70;;
67997;SDS011;54773;53.388;-1.504;2023-05-27T07:41:12;8.67;;;2.90;;
67997;SDS011;54773;53.388;-1.504;2023-05-27T07:43:56;8.45;;;2.60;;
67997;SDS011;54773;53.388;-1.504;2023-05-27T07:46:40;9.70;;;3.10;;
67997;SDS011;54773;53.388;-1.504;2023-05-27T07:49:25;8.32;;;2.80;;
67997;SDS011;54773;53.388;-1.504;2023-05-27T07:52:09;10.80;;;2.70;;
67997;SDS011;54773;53.388;-1.504;2023-05-27T07:54:53;10.03;;;3.40;;
67997;SDS011;54773;53.388;-1.504;2023-05-27T07:57:37;8.70;;;2.58;;
67997;SDS011;54773;53.388;-1.504;2023-05-27T08:00:21;9.93;;;2.73;;
67997;SDS011;54773;53.388;-1.504;2023-05-27T08:03:05;11.07;;;3.30;;
67997;SDS011;54773;53.388;-1.504;2023-05-27T08:05:49;10.18;;;2.95;;
67997;SDS011;54773;53.388;-1.504;2023-05-27T08:08:33;7.78;;;3.13;;
67997;SDS011;54773;53.388;-1.504;2023-05-27T08:11:17;10.67;;;2.77;;
67997;SDS011;54773;53.388;-1.504;2023-05-27T08:14:01;10.20;;;2.70;;
67997;SDS011;54773;53.388;-1.504;2023-05-27T08:16:45;8.15;;;2.55;;
67997;SDS011;54773;53.388;-1.504;2023-05-27T08:19:29;9.23;;;2.93;;
67997;SDS011;54773;53.388;-1.504;2023-05-27T08:22:13;11.18;;;3.35;;
67997;SDS011;54773;53.388;-1.504;2023-05-27T08:24:58;12.30;;;3.25;;
67997;SDS011;54773;53.388;-1.504;2023-05-27T08:27:52;8.10;;;3.10;;
67997;SDS011;54773;53.388;-1.504;2023-05-27T08:30:37;8.05;;;2.72;;
67997;SDS011;54773;53.388;-1.504;2023-05-27T08:33:21;8.40;;;2.80;;
67997;SDS011;54773;53.388;-1.504;2023-05-27T08:36:06;15.35;;;3.20;;
67997;SDS011;54773;53.388;-1.504;2023-05-27T08:38:51;10.80;;;3.05;;
67997;SDS011;54773;53.388;-1.504;2023-05-27T08:41:35;11.80;;;3.33;;
67997;SDS011;54773;53.388;-1.504;2023-05-27T08:44:21;11.35;;;3.00;;
67997;SDS011;54773;53.388;-1.504;2023-05-27T08:47:06;8.80;;;3.00;;
67997;SDS011;54773;53.388;-1.504;2023-05-27T08:52:37;8.05;;;3.03;;
67997;SDS011;54773;53.388;-1.504;2023-05-27T08:55:29;10.13;;;2.85;;
67997;SDS011;54773;53.388;-1.504;2023-05-27T08:58:14;11.10;;;2.70;;
67997;SDS011;54773;53.388;-1.504;2023-05-27T09:00:59;9.00;;;3.33;;
67997;SDS011;54773;53.388;-1.504;2023-05-27T09:03:44;11.98;;;2.60;;
67997;SDS011;54773;53.388;-1.504;2023-05-27T09:06:28;9.57;;;3.23;;
67997;SDS011;54773;53.388;-1.504;2023-05-27T09:09:13;15.23;;;3.00;;
67997;SDS011;54773;53.388;-1.504;2023-05-27T09:12:06;12.27;;;2.63;;
67997;SDS011;54773;53.388;-1.504;2023-05-27T09:20:28;9.57;;;2.75;;
67997;SDS011;54773;53.388;-1.504;2023-05-27T09:23:14;8.73;;;2.90;;
67997;SDS011;54773;53.388;-1.504;2023-05-27T09:25:58;10.40;;;2.53;;
67997;SDS011;54773;53.388;-1.504;2023-05-27T09:28:44;9.02;;;3.00;;
67997;SDS011;54773;53.388;-1.504;2023-05-27T09:31:28;7.82;;;2.90;;
67997;SDS011;54773;53.388;-1.504;2023-05-27T09:34:14;10.80;;;3.05;;
67997;SDS011;54773;53.388;-1.504;2023-05-27T09:36:58;8.85;;;2.80;;
67997;SDS011;54773;53.388;-1.504;2023-05-27T09:39:42;9.30;;;2.45;;
67997;SDS011;54773;53.388;-1.504;2023-05-27T09:42:45;11.55;;;2.97;;
67997;SDS011;54773;53.388;-1.504;2023-05-27T09:45:33;8.70;;;2.63;;
67997;SDS011;54773;53.388;-1.504;2023-05-27T09:48:17;7.45;;;2.38;;
67997;SDS011;54773;53.388;-1.504;2023-05-27T09:51:02;9.70;;;2.60;;
67997;SDS011;54773;53.388;-1.504;2023-05-27T09:53:47;7.97;;;2.80;;
67997;SDS011;54773;53.388;-1.504;2023-05-27T09:56:32;7.60;;;2.63;;
67997;SDS011;54773;53.388;-1.504;2023-05-27T09:59:17;8.88;;;2.78;;
67997;SDS011;54773;53.388;-1.504;2023-05-27T10:02:01;11.48;;;3.50;;
67997;SDS011;54773;53.388;-1.504;2023-05-27T10:04:49;10.70;;;2.83;;
67997;SDS011;54773;53.388;-1.504;2023-05-27T10:07:43;9.55;;;2.55;;
67997;SDS011;54773;53.388;-1.504;2023-05-27T10:10:29;10.25;;;2.92;;
67997;SDS011;54773;53.388;-1.504;2023-05-27T10:13:16;6.95;;;2.47;;
67997;SDS011;54773;53.388;-1.504;2023-05-27T10:16:05;7.38;;;2.45;;
67997;SDS011;54773;53.388;-1.504;2023-05-27T10:18:53;17.67;;;2.78;;
67997;SDS011;54773;53.388;-1.504;2023-05-27T10:21:41;6.47;;;2.60;;
67997;SDS011;54773;53.388;-1.504;2023-05-27T10:24:33;8.10;;;2.83;;
67997;SDS011;54773;53.388;-1.504;2023-05-27T10:27:17;8.13;;;2.58;;
67997;SDS011;54773;53.388;-1.504;2023-05-27T10:30:01;8.68;;;2.45;;
67997;SDS011;54773;53.388;-1.504;2023-05-27T10:32:48;10.65;;;2.80;;
67997;SDS011;54773;53.388;-1.504;2023-05-27T10:35:49;8.15;;;2.67;;
67997;SDS011;54773;53.388;-1.504;2023-05-27T10:38:40;7.35;;;2.67;;
67997;SDS011;54773;53.388;-1.504;2023-05-27T10:41:25;9.00;;;3.20;;
67997;SDS011;54773;53.388;-1.504;2023-05-27T10:44:10;9.85;;;2.33;;
67997;SDS011;54773;53.388;-1.504;2023-05-27T10:47:00;9.02;;;2.55;;
67997;SDS011;54773;53.388;-1.504;2023-05-27T10:49:46;8.10;;;2.65;;
67997;SDS011;54773;53.388;-1.504;2023-05-27T10:52:31;9.40;;;2.80;;
67997;SDS011;54773;53.388;-1.504;2023-05-27T10:55:20;9.35;;;3.00;;
67997;SDS011;54773;53.388;-1.504;2023-05-27T10:58:05;10.38;;;3.42;;
67997;SDS011;54773;53.388;-1.504;2023-05-27T11:00:49;9.50;;;2.70;;
67997;SDS011;54773;53.388;-1.504;2023-05-27T11:03:35;7.32;;;2.60;;
67997;SDS011;54773;53.388;-1.504;2023-05-27T11:06:19;8.95;;;3.10;;
67997;SDS011;54773;53.388;-1.504;2023-05-27T11:09:03;6.57;;;2.40;;
67997;SDS011;54773;53.388;-1.504;2023-05-27T11:11:47;9.90;;;3.08;;
67997;SDS011;54773;53.388;-1.504;2023-05-27T11:14:31;10.75;;;3.13;;
67997;SDS011;54773;53.388;-1.504;2023-05-27T11:17:15;7.72;;;2.72;;
67997;SDS011;54773;53.388;-1.504;2023-05-27T11:20:00;9.50;;;2.60;;
67997;SDS011;54773;53.388;-1.504;2023-05-27T11:22:50;5.82;;;2.35;;
67997;SDS011;54773;53.388;-1.504;2023-05-27T11:25:43;8.55;;;2.63;;
67997;SDS011;54773;53.388;-1.504;2023-05-27T11:28:28;8.30;;;2.88;;
67997;SDS011;54773;53.388;-1.504;2023-05-27T11:31:12;8.85;;;2.80;;
67997;SDS011;54773;53.388;-1.504;2023-05-27T11:33:57;10.32;;;3.05;;
67997;SDS011;54773;53.388;-1.504;2023-05-27T11:39:27;5.60;;;2.70;;
67997;SDS011;54773;53.388;-1.504;2023-05-27T11:42:11;7.60;;;2.95;;
67997;SDS011;54773;53.388;-1.504;2023-05-27T11:44:55;8.82;;;2.75;;
67997;SDS011;54773;53.388;-1.504;2023-05-27T11:47:40;10.50;;;2.97;;
67997;SDS011;54773;53.388;-1.504;2023-05-27T11:50:26;11.27;;;3.80;;
67997;SDS011;54773;53.388;-1.504;2023-05-27T11:53:11;11.70;;;3.70;;
67997;SDS011;54773;53.388;-1.504;2023-05-27T11:55:59;8.30;;;3.45;;
67997;SDS011;54773;53.388;-1.504;2023-05-27T11:58:43;8.65;;;3.15;;
67997;SDS011;54773;53.388;-1.504;2023-05-27T12:01:27;10.15;;;3.50;;
67997;SDS011;54773;53.388;-1.504;2023-05-27T12:04:11;8.32;;;3.00;;
67997;SDS011;54773;53.388;-1.504;2023-05-27T12:09:40;8.88;;;2.70;;
67997;SDS011;54773;53.388;-1.504;2023-05-27T12:12:24;12.07;;;3.60;;
67997;SDS011;54773;53.388;-1.504;2023-05-27T12:15:11;10.50;;;3.45;;
67997;SDS011;54773;53.388;-1.504;2023-05-27T12:17:55;8.05;;;3.05;;
67997;SDS011;54773;53.388;-1.504;2023-05-27T12:23:24;6.95;;;2.67;;
67997;SDS011;54773;53.388;-1.504;2023-05-27T12:26:09;7.25;;;2.10;;
67997;SDS011;54773;53.388;-1.504;2023-05-27T12:28:53;7.72;;;2.75;;
67997;SDS011;54773;53.388;-1.504;2023-05-27T12:31:37;8.00;;;2.70;;
67997;SDS011;54773;53.388;-1.504;2023-05-27T12:37:07;7.55;;;2.78;;
67997;SDS011;54773;53.388;-1.504;2023-05-27T12:39:51;8.68;;;2.65;;
67997;SDS011;54773;53.388;-1.504;2023-05-27T12:42:35;7.60;;;2.55;;
67997;SDS011;54773;53.388;-1.504;2023-05-27T12:48:08;7.63;;;2.33;;
67997;SDS011;54773;53.388;-1.504;2023-05-27T12:50:52;6.88;;;2.50;;
67997;SDS011;54773;53.388;-1.504;2023-05-27T12:53:36;7.80;;;2.72;;
67997;SDS011;54773;53.388;-1.504;2023-05-27T12:56:20;9.02;;;3.30;;
67997;SDS011;54773;53.388;-1.504;2023-05-27T12:59:05;8.80;;;3.15;;
67997;SDS011;54773;53.388;-1.504;2023-05-27T13:01:49;7.90;;;2.50;;
67997;SDS011;54773;53.388;-1.504;2023-05-27T13:04:33;6.28;;;2.60;;
67997;SDS011;54773;53.388;-1.504;2023-05-27T13:07:18;7.97;;;2.40;;
67997;SDS011;54773;53.388;-1.504;2023-05-27T13:10:02;6.93;;;2.67;;
67997;SDS011;54773;53.388;-1.504;2023-05-27T13:12:47;8.35;;;2.65;;
67997;SDS011;54773;53.388;-1.504;2023-05-27T13:15:31;5.75;;;2.30;;
67997;SDS011;54773;53.388;-1.504;2023-05-27T13:18:16;5.53;;;2.50;;
67997;SDS011;54773;53.388;-1.504;2023-05-27T13:21:00;10.18;;;3.03;;
67997;SDS011;54773;53.388;-1.504;2023-05-27T13:23:44;8.00;;;2.65;;
67997;SDS011;54773;53.388;-1.504;2023-05-27T13:26:28;8.23;;;2.33;;
67997;SDS011;54773;53.388;-1.504;2023-05-27T13:29:13;7.55;;;2.65;;
67997;SDS011;54773;53.388;-1.504;2023-05-27T13:31:57;7.38;;;2.40;;
67997;SDS011;54773;53.388;-1.504;2023-05-27T13:34:41;9.15;;;2.63;;
67997;SDS011;54773;53.388;-1.504;2023-05-27T13:37:25;8.65;;;3.35;;
67997;SDS011;54773;53.388;-1.504;2023-05-27T13:40:13;8.60;;;2.53;;
67997;SDS011;54773;53.388;-1.504;2023-05-27T13:42:57;6.28;;;2.75;;
67997;SDS011;54773;53.388;-1.504;2023-05-27T13:45:41;7.68;;;2.83;;
67997;SDS011;54773;53.388;-1.504;2023-05-27T13:48:25;9.73;;;2.97;;
67997;SDS011;54773;53.388;-1.504;2023-05-27T13:51:09;8.80;;;2.65;;
67997;SDS011;54773;53.388;-1.504;2023-05-27T13:53:53;9.00;;;2.90;;
67997;SDS011;54773;53.388;-1.504;2023-05-27T13:56:37;8.07;;;2.70;;
67997;SDS011;54773;53.388;-1.504;2023-05-27T13:59:22;7.82;;;2.80;;
67997;SDS011;54773;53.388;-1.504;2023-05-27T14:02:06;9.70;;;2.80;;
67997;SDS011;54773;53.388;-1.504;2023-05-27T14:04:53;9.82;;;2.92;;
67997;SDS011;54773;53.388;-1.504;2023-05-27T14:07:40;9.35;;;3.00;;
67997;SDS011;54773;53.388;-1.504;2023-05-27T14:10:25;9.82;;;2.75;;
67997;SDS011;54773;53.388;-1.504;2023-05-27T14:15:54;8.05;;;3.15;;
67997;SDS011;54773;53.388;-1.504;2023-05-27T14:18:38;7.15;;;2.50;;
67997;SDS011;54773;53.388;-1.504;2023-05-27T14:21:21;8.02;;;2.63;;
67997;SDS011;54773;53.388;-1.504;2023-05-27T14:24:06;8.45;;;2.97;;
67997;SDS011;54773;53.388;-1.504;2023-05-27T14:26:53;10.23;;;3.00;;
67997;SDS011;54773;53.388;-1.504;2023-05-27T14:29:37;7.95;;;3.15;;
67997;SDS011;54773;53.388;-1.504;2023-05-27T14:35:05;22.33;;;14.88;;
67997;SDS011;54773;53.388;-1.504;2023-05-27T14:37:50;28.00;;;20.73;;
67997;SDS011;54773;53.388;-1.504;2023-05-27T14:40:34;21.55;;;17.27;;
67997;SDS011;54773;53.388;-1.504;2023-05-27T14:43:18;18.05;;;11.50;;
67997;SDS011;54773;53.388;-1.504;2023-05-27T14:46:02;11.05;;;5.05;;
67997;SDS011;54773;53.388;-1.504;2023-05-27T14:48:46;8.73;;;3.05;;
67997;SDS011;54773;53.388;-1.504;2023-05-27T14:51:30;6.35;;;2.90;;
67997;SDS011;54773;53.388;-1.504;2023-05-27T14:54:14;6.72;;;2.78;;
67997;SDS011;54773;53.388;-1.504;2023-05-27T14:56:58;6.28;;;2.63;;
67997;SDS011;54773;53.388;-1.504;2023-05-27T14:59:42;7.88;;;2.58;;
67997;SDS011;54773;53.388;-1.504;2023-05-27T15:02:26;9.45;;;3.10;;
67997;SDS011;54773;53.388;-1.504;2023-05-27T15:07:55;7.28;;;2.90;;
67997;SDS011;54773;53.388;-1.504;2023-05-27T15:10:38;9.23;;;2.83;;
67997;SDS011;54773;53.388;-1.504;2023-05-27T15:13:23;8.23;;;2.92;;
67997;SDS011;54773;53.388;-1.504;2023-05-27T15:16:07;7.95;;;2.70;;
67997;SDS011;54773;53.388;-1.504;2023-05-27T15:18:51;7.93;;;2.92;;
67997;SDS011;54773;53.388;-1.504;2023-05-27T15:21:35;8.63;;;3.15;;
67997;SDS011;54773;53.388;-1.504;2023-05-27T15:24:19;8.23;;;2.85;;
67997;SDS011;54773;53.388;-1.504;2023-05-27T15:27:03;10.18;;;3.28;;
67997;SDS011;54773;53.388;-1.504;2023-05-27T15:29:47;8.65;;;3.15;;
67997;SDS011;54773;53.388;-1.504;2023-05-27T15:32:35;9.60;;;3.67;;
67997;SDS011;54773;53.388;-1.504;2023-05-27T15:35:20;7.95;;;3.08;;
67997;SDS011;54773;53.388;-1.504;2023-05-27T15:38:04;7.05;;;2.80;;
67997;SDS011;54773;53.388;-1.504;2023-05-27T15:40:48;8.07;;;2.60;;
67997;SDS011;54773;53.388;-1.504;2023-05-27T15:43:33;7.18;;;3.10;;
67997;SDS011;54773;53.388;-1.504;2023-05-27T15:46:18;8.40;;;3.13;;
67997;SDS011;54773;53.388;-1.504;2023-05-27T15:49:05;11.93;;;3.50;;
67997;SDS011;54773;53.388;-1.504;2023-05-27T15:51:49;7.93;;;3.28;;
67997;SDS011;54773;53.388;-1.504;2023-05-27T15:54:33;9.00;;;3.28;;
67997;SDS011;54773;53.388;-1.504;2023-05-27T15:57:17;8.43;;;3.35;;
67997;SDS011;54773;53.388;-1.504;2023-05-27T16:00:01;9.15;;;3.53;;
67997;SDS011;54773;53.388;-1.504;2023-05-27T16:02:48;12.20;;;3.30;;
67997;SDS011;54773;53.388;-1.504;2023-05-27T16:05:39;6.97;;;3.25;;
67997;SDS011;54773;53.388;-1.504;2023-05-27T16:08:23;7.53;;;3.10;;
67997;SDS011;54773;53.388;-1.504;2023-05-27T16:11:07;6.75;;;3.33;;
67997;SDS011;54773;53.388;-1.504;2023-05-27T16:13:52;7.78;;;3.13;;
67997;SDS011;54773;53.388;-1.504;2023-05-27T16:16:37;6.13;;;3.05;;
67997;SDS011;54773;53.388;-1.504;2023-05-27T16:19:20;8.02;;;3.53;;
67997;SDS011;54773;53.388;-1.504;2023-05-27T16:22:04;11.73;;;3.92;;
67997;SDS011;54773;53.388;-1.504;2023-05-27T16:24:48;8.63;;;2.97;;
67997;SDS011;54773;53.388;-1.504;2023-05-27T16:27:32;9.43;;;3.63;;
67997;SDS011;54773;53.388;-1.504;2023-05-27T16:30:16;8.35;;;3.30;;
67997;SDS011;54773;53.388;-1.504;2023-05-27T16:33:00;18.90;;;7.00;;
67997;SDS011;54773;53.388;-1.504;2023-05-27T16:35:44;8.85;;;3.20;;
67997;SDS011;54773;53.388;-1.504;2023-05-27T16:38:29;6.95;;;3.22;;
67997;SDS011;54773;53.388;-1.504;2023-05-27T16:41:13;10.18;;;3.72;;
67997;SDS011;54773;53.388;-1.504;2023-05-27T16:46:41;8.90;;;3.60;;